createdAt,value
2018-03-04T00:02:24.173Z,104.10
2018-03-04T00:04:52.427Z,114.70
2018-03-04T00:07:19.879Z,119.93
2018-03-04T00:09:47.337Z,113.50
2018-03-04T00:12:14.806Z,118.73
2018-03-04T00:14:42.285Z,108.07
2018-03-04T00:17:09.749Z,119.23
2018-03-04T00:19:37.221Z,113.37
2018-03-04T00:22:04.685Z,111.43
2018-03-04T00:24:32.154Z,106.83
2018-03-04T00:27:00.373Z,109.37
2018-03-04T00:29:27.834Z,106.87
2018-03-04T00:31:55.296Z,119.50
2018-03-04T00:34:22.757Z,99.70
2018-03-04T00:36:50.222Z,101.17
2018-03-04T00:39:17.697Z,98.43
2018-03-04T00:41:45.161Z,98.70
2018-03-04T00:44:12.629Z,106.57
2018-03-04T00:46:40.113Z,107.70
2018-03-04T00:49:07.578Z,105.20
2018-03-04T00:51:42.741Z,104.67
2018-03-04T00:54:10.971Z,132.33
2018-03-04T00:56:38.447Z,98.90
2018-03-04T00:59:05.898Z,106.83
2018-03-04T01:01:33.385Z,112.60
2018-03-04T01:04:00.865Z,123.30
2018-03-04T01:06:29.093Z,147.67
2018-03-04T01:08:56.577Z,121.67
2018-03-04T01:11:24.025Z,106.53
2018-03-04T01:13:51.506Z,113.20
2018-03-04T01:16:18.961Z,115.67
2018-03-04T01:18:46.430Z,91.10
2018-03-04T01:21:13.889Z,95.33
2018-03-04T01:23:43.766Z,87.90
2018-03-04T01:26:11.217Z,93.60
2018-03-04T01:28:38.689Z,84.40
2018-03-04T01:31:06.147Z,89.67
2018-03-04T01:33:33.619Z,89.63
2018-03-04T01:36:01.069Z,95.60
2018-03-04T01:38:28.529Z,96.83
2018-03-04T01:40:55.992Z,99.17
2018-03-04T01:43:23.463Z,111.07
2018-03-04T01:45:50.937Z,96.53
2018-03-04T01:48:18.394Z,99.40
2018-03-04T01:50:45.869Z,118.80
2018-03-04T01:53:13.333Z,119.27
2018-03-04T01:55:40.802Z,88.07
2018-03-04T01:58:08.284Z,81.47
2018-03-04T02:00:35.732Z,75.13
2018-03-04T02:03:03.190Z,70.37
2018-03-04T02:05:30.649Z,87.37
2018-03-04T02:07:58.133Z,78.13
2018-03-04T02:10:25.572Z,82.57
2018-03-04T02:12:53.041Z,72.50
2018-03-04T02:15:20.505Z,123.10
2018-03-04T02:17:47.963Z,76.27
2018-03-04T02:20:15.425Z,75.67
2018-03-04T02:22:42.896Z,81.80
2018-03-04T02:25:10.365Z,70.13
2018-03-04T02:27:37.841Z,78.40
2018-03-04T02:30:05.336Z,79.07
2018-03-04T02:32:32.758Z,81.57
2018-03-04T02:35:00.233Z,70.17
2018-03-04T02:37:27.686Z,83.23
2018-03-04T02:39:55.154Z,133.40
2018-03-04T02:42:22.616Z,80.83
2018-03-04T02:44:50.079Z,82.63
2018-03-04T02:47:17.549Z,86.57
2018-03-04T02:49:45.006Z,95.67
2018-03-04T02:52:12.481Z,85.67
2018-03-04T02:54:40.715Z,70.53
2018-03-04T02:57:08.194Z,94.50
2018-03-04T02:59:35.638Z,96.93
2018-03-04T03:02:03.129Z,103.83
2018-03-04T03:04:31.362Z,78.20
2018-03-04T03:06:58.837Z,83.57
2018-03-04T03:09:26.291Z,77.23
2018-03-04T03:11:53.748Z,153.33
2018-03-04T03:14:21.232Z,136.00
2018-03-04T03:16:48.720Z,100.87
2018-03-04T03:19:16.940Z,117.03
2018-03-04T03:21:44.393Z,70.00
2018-03-04T03:24:11.866Z,134.07
2018-03-04T03:26:39.320Z,69.23
2018-03-04T03:29:06.801Z,78.93
2018-03-04T03:31:34.245Z,89.93
2018-03-04T03:34:01.729Z,101.67
2018-03-04T03:36:29.196Z,84.60
2018-03-04T03:38:56.674Z,82.67
2018-03-04T03:41:24.131Z,64.70
2018-03-04T03:43:51.596Z,70.67
2018-03-04T03:46:19.046Z,82.20
2018-03-04T03:48:46.505Z,58.13
2018-03-04T03:51:13.953Z,60.10
2018-03-04T03:53:41.422Z,64.33
2018-03-04T03:56:08.887Z,65.63
2018-03-04T03:58:36.346Z,66.57
2018-03-04T04:01:03.812Z,61.83
2018-03-04T04:03:31.300Z,57.50
2018-03-04T04:05:58.763Z,99.53
2018-03-04T04:08:26.236Z,82.30
2018-03-04T04:10:53.685Z,64.90
2018-03-04T04:13:21.140Z,64.10
2018-03-04T04:15:48.628Z,70.00
2018-03-04T04:18:16.078Z,62.70
2018-03-04T04:20:43.550Z,56.27
2018-03-04T04:23:11.003Z,57.17
2018-03-04T04:25:38.468Z,56.37
2018-03-04T04:28:05.916Z,70.27
2018-03-04T04:30:33.395Z,73.43
2018-03-04T04:33:00.846Z,88.07
2018-03-04T04:35:28.314Z,64.97
2018-03-04T04:37:55.770Z,56.27
2018-03-04T04:40:23.237Z,56.57
2018-03-04T04:42:50.709Z,62.27
2018-03-04T04:45:18.166Z,59.43
2018-03-04T04:47:45.615Z,54.83
2018-03-04T04:50:13.077Z,65.80
2018-03-04T04:52:40.554Z,73.10
2018-03-04T04:55:08.047Z,62.47
2018-03-04T04:57:35.501Z,51.70
2018-03-04T05:00:03.734Z,50.47
2018-03-04T05:02:31.194Z,65.93
2018-03-04T05:04:58.731Z,71.27
2018-03-04T05:07:26.188Z,88.03
2018-03-04T05:09:53.673Z,70.87
2018-03-04T05:12:21.125Z,51.23
2018-03-04T05:14:48.598Z,61.47
2018-03-04T05:17:16.059Z,63.90
2018-03-04T05:19:43.534Z,54.37
2018-03-04T05:22:10.994Z,49.93
2018-03-04T05:24:38.466Z,50.50
2018-03-04T05:27:05.929Z,55.17
2018-03-04T05:29:34.228Z,62.17
2018-03-04T05:32:01.679Z,67.50
2018-03-04T05:34:29.146Z,57.37
2018-03-04T05:36:56.615Z,52.27
2018-03-04T05:39:24.071Z,48.70
2018-03-04T05:41:51.545Z,74.23
2018-03-04T05:44:19.001Z,171.30
2018-03-04T05:46:46.463Z,43.67
2018-03-04T05:49:13.917Z,38.03
2018-03-04T05:51:41.382Z,49.53
2018-03-04T05:54:08.832Z,44.43
2018-03-04T05:56:36.309Z,65.47
2018-03-04T05:59:03.775Z,115.13
2018-03-04T06:01:31.245Z,41.70
2018-03-04T06:03:58.702Z,37.40
2018-03-04T06:06:26.171Z,40.23
2018-03-04T06:08:53.628Z,40.87
2018-03-04T06:11:21.090Z,39.80
2018-03-04T06:13:48.538Z,36.93
2018-03-04T06:16:16.026Z,43.03
2018-03-04T06:18:43.486Z,79.73
2018-03-04T06:21:10.961Z,73.53
2018-03-04T06:23:39.189Z,102.80
2018-03-04T06:26:06.651Z,52.00
2018-03-04T06:28:34.120Z,116.27
2018-03-04T06:31:01.584Z,96.63
2018-03-04T06:33:29.122Z,121.87
2018-03-04T06:35:56.545Z,98.43
2018-03-04T06:38:24.793Z,32.67
2018-03-04T06:40:52.253Z,34.57
2018-03-04T06:43:19.737Z,34.33
2018-03-04T06:45:47.201Z,36.37
2018-03-04T06:48:14.689Z,34.80
2018-03-04T06:50:42.918Z,50.87
2018-03-04T06:53:10.414Z,40.73
2018-03-04T06:55:37.869Z,38.93
2018-03-04T06:58:05.332Z,95.97
2018-03-04T07:00:32.794Z,35.10
2018-03-04T07:03:00.281Z,39.13
2018-03-04T07:05:28.510Z,70.43
2018-03-04T07:07:55.975Z,174.53
2018-03-04T07:10:23.435Z,284.30
2018-03-04T07:12:50.898Z,43.07
2018-03-04T07:15:18.386Z,48.43
2018-03-04T07:17:45.857Z,127.27
2018-03-04T07:20:13.299Z,80.87
2018-03-04T07:22:40.779Z,73.30
2018-03-04T07:25:08.244Z,45.30
2018-03-04T07:27:35.773Z,49.00
2018-03-04T07:30:03.965Z,130.37
2018-03-04T07:32:31.413Z,96.13
2018-03-04T07:34:58.904Z,275.23
2018-03-04T07:37:26.369Z,292.17
2018-03-04T07:39:53.855Z,52.43
2018-03-04T07:42:22.082Z,153.87
2018-03-04T07:44:49.552Z,266.07
2018-03-04T07:47:17.022Z,235.57
2018-03-04T07:49:44.487Z,47.60
2018-03-04T07:52:11.951Z,168.80
2018-03-04T07:54:39.427Z,169.60
2018-03-04T07:57:06.882Z,48.23
2018-03-04T07:59:34.388Z,45.50
2018-03-04T08:02:02.599Z,46.20
2018-03-04T08:04:30.062Z,91.83
2018-03-04T08:06:57.516Z,47.93
2018-03-04T08:09:24.997Z,73.70
2018-03-04T08:11:52.459Z,38.73
2018-03-04T08:14:19.921Z,39.50
2018-03-04T08:16:47.389Z,104.90
2018-03-04T08:19:14.856Z,53.20
2018-03-04T08:21:42.314Z,35.77
2018-03-04T08:24:40.664Z,60.63
2018-03-04T08:27:19.940Z,88.93
2018-03-04T08:29:48.177Z,53.00
2018-03-04T08:32:15.637Z,54.70
2018-03-04T08:34:43.128Z,81.17
2018-03-04T08:37:10.592Z,37.33
2018-03-04T08:39:38.079Z,80.63
2018-03-04T08:42:06.466Z,44.97
2018-03-04T08:44:35.464Z,38.50
2018-03-04T08:47:03.698Z,34.27
2018-03-04T08:49:31.155Z,59.80
2018-03-04T08:51:58.617Z,71.87
2018-03-04T08:54:26.078Z,33.83
2018-03-04T08:56:53.536Z,36.57
2018-03-04T08:59:21.005Z,55.87
2018-03-04T09:01:48.475Z,34.87
2018-03-04T09:04:15.941Z,65.43
2018-03-04T09:06:43.431Z,33.23
2018-03-04T09:09:11.650Z,70.13
2018-03-04T09:11:39.111Z,109.07
2018-03-04T09:14:06.582Z,58.13
2018-03-04T09:16:34.055Z,47.50
2018-03-04T09:19:01.522Z,43.13
2018-03-04T09:21:28.994Z,54.10
2018-03-04T09:23:56.467Z,52.07
2018-03-04T09:26:23.936Z,34.70
2018-03-04T09:28:51.417Z,63.50
2018-03-04T09:31:19.655Z,67.47
2018-03-04T09:33:47.114Z,46.80
2018-03-04T09:36:14.583Z,73.83
2018-03-04T09:38:42.042Z,105.47
2018-03-04T09:41:09.505Z,47.30
2018-03-04T09:43:36.988Z,59.83
2018-03-04T09:46:04.467Z,59.87
2018-03-04T09:48:31.918Z,63.57
2018-03-04T09:50:59.397Z,41.30
2018-03-04T09:53:27.605Z,48.40
2018-03-04T09:55:55.093Z,66.83
2018-03-04T09:58:22.565Z,40.03
2018-03-04T10:00:50.026Z,59.70
2018-03-04T10:03:17.477Z,41.43
2018-03-04T10:05:44.960Z,35.90
2018-03-04T10:08:12.433Z,36.70
2018-03-04T10:10:39.891Z,40.43
2018-03-04T10:13:07.365Z,58.57
2018-03-04T10:15:34.817Z,114.33
2018-03-04T10:18:02.300Z,75.73
2018-03-04T10:20:30.514Z,88.83
2018-03-04T10:22:57.972Z,52.77
2018-03-04T10:25:25.443Z,45.33
2018-03-04T10:27:52.935Z,74.73
2018-03-04T10:30:20.381Z,54.30
2018-03-04T10:33:01.929Z,43.43
2018-03-04T10:35:29.398Z,56.33
2018-03-04T10:37:56.870Z,45.97
2018-03-04T10:40:24.339Z,48.87
2018-03-04T10:42:51.809Z,59.93
2018-03-04T10:45:19.265Z,39.63
2018-03-04T10:47:46.744Z,43.93
2018-03-04T10:50:14.193Z,41.07
2018-03-04T10:52:41.674Z,44.07
2018-03-04T10:55:09.137Z,39.73
2018-03-04T10:57:36.606Z,41.13
2018-03-04T11:00:04.065Z,37.73
2018-03-04T11:02:37.126Z,45.00
2018-03-04T11:05:04.595Z,37.23
2018-03-04T11:07:32.841Z,38.67
2018-03-04T11:10:01.073Z,52.63
2018-03-04T11:12:28.537Z,42.57
2018-03-04T11:14:56.005Z,37.90
2018-03-04T11:17:23.458Z,50.13
2018-03-04T11:19:50.921Z,45.67
2018-03-04T11:22:18.385Z,44.90
2018-03-04T11:24:45.846Z,43.47
2018-03-04T11:27:14.063Z,58.57
2018-03-04T11:29:41.546Z,48.87
2018-03-04T11:32:09.789Z,51.03
2018-03-04T11:34:37.255Z,53.20
2018-03-04T11:37:04.708Z,49.17
2018-03-04T11:39:32.174Z,55.27
2018-03-04T11:41:59.630Z,45.83
2018-03-04T11:44:27.098Z,61.20
2018-03-04T11:46:54.580Z,49.97
2018-03-04T11:49:22.041Z,56.20
2018-03-04T11:51:50.281Z,47.13
2018-03-04T11:54:43.568Z,54.87
2018-03-04T11:57:11.025Z,44.13
2018-03-04T11:59:38.508Z,50.00
2018-03-04T12:02:06.740Z,46.03
2018-03-04T12:04:34.213Z,43.13
2018-03-04T12:07:01.662Z,48.47
2018-03-04T12:09:29.176Z,46.60
2018-03-04T12:11:56.600Z,47.97
2018-03-04T12:14:24.095Z,49.13
2018-03-04T12:16:51.545Z,60.93
2018-03-04T12:19:19.046Z,48.40
2018-03-04T12:21:46.501Z,56.63
2018-03-04T12:24:13.982Z,54.43
2018-03-04T12:26:42.363Z,54.77
2018-03-04T12:29:09.830Z,57.40
2018-03-04T12:31:37.290Z,53.77
2018-03-04T12:34:04.748Z,62.87
2018-03-04T12:36:32.206Z,57.93
2018-03-04T12:38:59.676Z,61.93
2018-03-04T12:41:27.133Z,65.13
2018-03-04T12:43:54.601Z,51.90
2018-03-04T12:46:22.165Z,51.63
2018-03-04T12:48:49.628Z,48.17
2018-03-04T12:51:17.088Z,44.83
2018-03-04T12:53:44.554Z,52.00
2018-03-04T12:56:12.066Z,49.83
2018-03-04T12:58:40.270Z,61.73
2018-03-04T13:01:08.505Z,46.87
2018-03-04T13:03:35.962Z,45.57
2018-03-04T13:06:03.425Z,41.40
2018-03-04T13:08:30.876Z,55.40
2018-03-04T13:10:58.350Z,49.83
2018-03-04T13:13:25.808Z,52.53
2018-03-04T13:15:53.267Z,49.17
2018-03-04T13:18:22.530Z,51.73
2018-03-04T13:20:50.778Z,49.73
2018-03-04T13:23:18.231Z,52.00
2018-03-04T13:25:45.690Z,51.63
2018-03-04T13:28:13.157Z,51.20
2018-03-04T13:30:40.630Z,48.07
2018-03-04T13:33:08.082Z,46.70
2018-03-04T13:35:35.565Z,48.93
2018-03-04T13:38:03.032Z,53.00
2018-03-04T13:40:31.257Z,47.93
2018-03-04T13:42:58.712Z,47.90
2018-03-04T13:45:26.194Z,57.10
2018-03-04T13:47:53.656Z,48.53
2018-03-04T13:50:21.123Z,45.87
2018-03-04T13:52:48.600Z,50.10
2018-03-04T13:55:16.050Z,45.83
2018-03-04T13:57:43.508Z,42.53
2018-03-04T14:00:10.972Z,47.03
2018-03-04T14:02:38.433Z,49.83
2018-03-04T14:05:05.903Z,42.83
2018-03-04T14:07:33.373Z,45.33
2018-03-04T14:10:00.833Z,47.33
2018-03-04T14:12:28.309Z,44.13
2018-03-04T14:14:55.756Z,41.40
2018-03-04T14:17:24.367Z,45.43
2018-03-04T14:19:51.820Z,48.67
2018-03-04T14:22:19.301Z,47.97
2018-03-04T14:24:47.530Z,41.57
2018-03-04T14:27:15.004Z,44.60
2018-03-04T14:29:42.466Z,41.57
2018-03-04T14:32:09.934Z,41.27
2018-03-04T14:34:37.390Z,39.93
2018-03-04T14:37:04.867Z,38.90
2018-03-04T14:39:38.505Z,37.87
2018-03-04T14:42:06.755Z,38.20
2018-03-04T14:44:34.214Z,38.63
2018-03-04T14:47:01.672Z,41.90
2018-03-04T14:49:29.134Z,37.87
2018-03-04T14:51:56.608Z,37.97
2018-03-04T14:54:24.068Z,36.47
2018-03-04T14:56:51.539Z,38.43
2018-03-04T14:59:19.050Z,34.37
2018-03-04T15:01:46.508Z,37.20
2018-03-04T15:04:13.982Z,42.33
2018-03-04T15:06:41.455Z,42.10
2018-03-04T15:09:08.929Z,44.90
2018-03-04T15:11:36.391Z,46.00
2018-03-04T15:14:03.864Z,41.13
2018-03-04T15:16:31.325Z,43.40
2018-03-04T15:18:58.801Z,39.30
2018-03-04T15:21:26.254Z,46.37
2018-03-04T15:23:53.721Z,40.63
2018-03-04T15:26:21.181Z,42.80
2018-03-04T15:28:48.660Z,52.30
2018-03-04T15:31:16.885Z,43.07
2018-03-04T15:33:44.353Z,46.77
2018-03-04T15:36:11.807Z,48.13
2018-03-04T15:38:40.060Z,46.23
2018-03-04T15:41:08.285Z,44.80
2018-03-04T15:43:35.750Z,44.93
2018-03-04T15:46:03.234Z,47.63
2018-03-04T15:48:30.683Z,46.30
2018-03-04T15:50:58.157Z,50.07
2018-03-04T15:53:26.409Z,45.13
2018-03-04T15:55:53.886Z,43.27
2018-03-04T15:58:21.348Z,48.73
2018-03-04T16:00:48.818Z,50.60
2018-03-04T16:03:16.273Z,51.73
2018-03-04T16:05:43.764Z,57.83
2018-03-04T16:08:11.228Z,58.87
2018-03-04T16:10:38.701Z,54.00
2018-03-04T16:13:06.916Z,48.33
2018-03-04T16:15:34.393Z,43.57
2018-03-04T16:18:01.855Z,46.70
2018-03-04T16:20:29.338Z,53.53
2018-03-04T16:22:56.807Z,54.13
2018-03-04T16:25:24.268Z,55.30
2018-03-04T16:27:51.732Z,54.93
2018-03-04T16:30:19.291Z,60.40
2018-03-04T16:32:59.142Z,54.87
2018-03-04T16:35:26.635Z,62.23
2018-03-04T16:37:54.860Z,56.50
2018-03-04T16:40:22.340Z,55.20
2018-03-04T16:42:49.801Z,47.60
2018-03-04T16:45:17.282Z,51.37
2018-03-04T16:47:44.773Z,44.70
2018-03-04T16:50:13.005Z,53.33
2018-03-04T16:52:40.461Z,47.50
2018-03-04T16:55:07.921Z,46.40
2018-03-04T16:57:35.396Z,48.13
2018-03-04T17:00:02.853Z,49.43
2018-03-04T17:02:30.321Z,48.10
2018-03-04T17:04:57.774Z,55.40
2018-03-04T17:07:25.256Z,46.27
2018-03-04T17:09:52.751Z,51.90
2018-03-04T17:12:20.993Z,50.13
2018-03-04T17:14:48.451Z,50.77
2018-03-04T17:17:15.928Z,44.50
2018-03-04T17:19:43.373Z,47.27
2018-03-04T17:22:10.862Z,47.20
2018-03-04T17:24:38.313Z,47.33
2018-03-04T17:27:05.799Z,52.07
2018-03-04T17:29:34.030Z,53.43
2018-03-04T17:32:01.496Z,42.10
2018-03-04T17:34:28.949Z,47.13
2018-03-04T17:36:56.414Z,44.37
2018-03-04T17:39:23.879Z,49.47
2018-03-04T17:41:51.329Z,46.60
2018-03-04T17:44:18.805Z,81.97
2018-03-04T17:46:46.275Z,56.37
2018-03-04T17:49:13.759Z,51.13
2018-03-04T17:51:41.222Z,63.27
2018-03-04T17:54:08.694Z,54.83
2018-03-04T17:56:36.149Z,63.57
2018-03-04T17:59:03.613Z,57.70
2018-03-04T18:01:31.074Z,55.83
2018-03-04T18:03:59.301Z,49.47
2018-03-04T18:06:26.780Z,50.10
2018-03-04T18:08:54.248Z,54.27
2018-03-04T18:11:21.709Z,50.30
2018-03-04T18:13:49.186Z,48.33
2018-03-04T18:16:16.706Z,50.87
2018-03-04T18:18:44.191Z,60.37
2018-03-04T18:21:11.648Z,61.43
2018-03-04T18:23:39.128Z,64.17
2018-03-04T18:26:06.580Z,62.83
2018-03-04T18:28:34.055Z,60.37
2018-03-04T18:31:01.537Z,186.00
2018-03-04T18:33:28.986Z,55.50
2018-03-04T18:35:56.463Z,56.03
2018-03-04T18:38:23.928Z,58.30
2018-03-04T18:40:51.385Z,55.37
2018-03-04T18:43:18.841Z,54.33
2018-03-04T18:45:46.307Z,50.83
2018-03-04T18:48:13.763Z,59.27
2018-03-04T18:50:41.241Z,54.50
2018-03-04T18:53:08.733Z,58.40
2018-03-04T18:55:36.962Z,55.00
2018-03-04T18:58:04.428Z,49.43
2018-03-04T19:00:31.908Z,51.40
2018-03-04T19:02:59.371Z,53.00
2018-03-04T19:05:26.851Z,52.67
2018-03-04T19:07:55.084Z,50.00
2018-03-04T19:10:22.576Z,51.53
2018-03-04T19:12:50.047Z,50.20
2018-03-04T19:15:17.526Z,71.90
2018-03-04T19:17:45.743Z,65.57
2018-03-04T19:20:13.224Z,56.33
2018-03-04T19:22:40.705Z,52.20
2018-03-04T19:25:08.180Z,50.63
2018-03-04T19:27:36.418Z,51.37
2018-03-04T19:30:03.878Z,69.40
2018-03-04T19:32:31.341Z,59.00
2018-03-04T19:34:58.832Z,53.17
2018-03-04T19:37:26.300Z,48.70
2018-03-04T19:39:53.781Z,52.53
2018-03-04T19:42:22.012Z,51.03
2018-03-04T19:44:49.482Z,50.33
2018-03-04T19:47:16.964Z,49.43
2018-03-04T19:49:44.454Z,65.63
2018-03-04T19:52:12.683Z,56.57
2018-03-04T19:54:40.142Z,53.00
2018-03-04T19:57:07.620Z,50.93
2018-03-04T19:59:35.092Z,53.07
2018-03-04T20:02:02.566Z,54.60
2018-03-04T20:04:30.031Z,52.07
2018-03-04T20:06:57.549Z,49.23
2018-03-04T20:09:25.740Z,50.73
2018-03-04T20:12:09.791Z,54.63
2018-03-04T20:14:37.318Z,56.10
2018-03-04T20:17:04.732Z,58.93
2018-03-04T20:19:32.200Z,57.37
2018-03-04T20:21:59.665Z,62.33
2018-03-04T20:24:27.126Z,56.13
2018-03-04T20:26:54.598Z,59.73
2018-03-04T20:29:22.817Z,58.97
2018-03-04T20:31:50.320Z,65.60
2018-03-04T20:34:17.758Z,65.63
2018-03-04T20:36:45.229Z,62.43
2018-03-04T20:39:12.693Z,63.13
2018-03-04T20:41:40.149Z,60.70
2018-03-04T20:44:07.644Z,61.30
2018-03-04T20:46:35.169Z,57.43
2018-03-04T20:49:02.642Z,55.40
2018-03-04T20:51:30.106Z,65.33
2018-03-04T20:53:57.584Z,64.17
2018-03-04T20:56:25.052Z,60.43
2018-03-04T20:58:52.513Z,59.40
2018-03-04T21:01:20.026Z,57.17
2018-03-04T21:03:47.464Z,57.53
2018-03-04T21:06:15.692Z,58.70
2018-03-04T21:08:43.159Z,52.93
2018-03-04T21:11:10.620Z,52.57
2018-03-04T21:13:38.085Z,55.30
2018-03-04T21:16:05.566Z,60.87
2018-03-04T21:18:33.086Z,53.63
2018-03-04T21:21:00.498Z,54.03
2018-03-04T21:23:27.955Z,49.07
2018-03-04T21:25:55.426Z,45.53
2018-03-04T21:28:22.882Z,43.37
2018-03-04T21:30:50.367Z,38.73
2018-03-04T21:33:18.592Z,34.97
2018-03-04T21:35:47.264Z,29.10
2018-03-04T21:38:14.771Z,23.90
2018-03-04T21:40:42.234Z,22.90
2018-03-04T21:43:09.692Z,20.43
2018-03-04T21:45:47.214Z,19.77
2018-03-04T21:48:15.442Z,19.00
2018-03-04T21:50:42.931Z,21.53
2018-03-04T21:53:10.394Z,17.27
2018-03-04T21:55:37.866Z,16.40
2018-03-04T21:58:05.322Z,15.23
2018-03-04T22:00:32.791Z,16.20
2018-03-04T22:03:00.253Z,15.60
2018-03-04T22:05:27.702Z,15.80
2018-03-04T22:07:55.192Z,14.83
2018-03-04T22:10:23.413Z,14.40
2018-03-04T22:12:50.890Z,13.63
2018-03-04T22:15:18.356Z,12.63
2018-03-04T22:17:45.828Z,12.80
2018-03-04T22:20:17.175Z,12.40
2018-03-04T22:22:44.651Z,11.10
2018-03-04T22:25:12.111Z,12.03
2018-03-04T22:27:39.596Z,11.00
2018-03-04T22:30:07.816Z,11.80
2018-03-04T22:32:35.282Z,13.77
2018-03-04T22:35:02.736Z,10.30
2018-03-04T22:37:30.217Z,9.57
2018-03-04T22:39:57.661Z,9.77
2018-03-04T22:42:25.136Z,9.57
2018-03-04T22:44:52.590Z,8.73
2018-03-04T22:47:20.045Z,8.10
2018-03-04T22:49:47.519Z,7.37
2018-03-04T22:52:14.984Z,9.10
2018-03-04T22:54:42.449Z,8.00
2018-03-04T22:57:09.922Z,7.53
2018-03-04T22:59:37.373Z,7.60
2018-03-04T23:02:04.831Z,6.90
2018-03-04T23:04:32.301Z,6.40
2018-03-04T23:06:59.776Z,5.67
2018-03-04T23:09:27.250Z,5.30
2018-03-04T23:11:54.701Z,5.70
2018-03-04T23:14:22.157Z,5.30
2018-03-04T23:16:49.613Z,5.17
2018-03-04T23:19:17.083Z,5.07
2018-03-04T23:21:44.545Z,4.93
2018-03-04T23:24:12.009Z,5.10
2018-03-04T23:26:39.473Z,4.60
2018-03-04T23:29:06.944Z,4.60
2018-03-04T23:31:34.400Z,4.47
2018-03-04T23:34:01.861Z,4.57
2018-03-04T23:36:29.298Z,4.23
2018-03-04T23:38:56.783Z,4.60
2018-03-04T23:41:24.246Z,4.33
2018-03-04T23:43:51.687Z,4.10
2018-03-04T23:46:19.160Z,4.03
2018-03-04T23:48:46.643Z,3.97
2018-03-04T23:51:14.114Z,3.90
2018-03-04T23:53:41.562Z,3.73
2018-03-04T23:56:09.029Z,3.53
2018-03-04T23:58:36.479Z,3.80
